sensor_id;sensor_type;location;lat;lon;timestamp;P1;durP1;ratioP1;P2;durP2;ratioP2
77109;SDS011;66062;52.464;16.922;2023-06-24T00:01:30;7.55;;;5.47;;
77109;SDS011;66062;52.464;16.922;2023-06-24T00:03:56;7.40;;;5.43;;
77109;SDS011;66062;52.464;16.922;2023-06-24T00:06:22;9.82;;;4.75;;
77109;SDS011;66062;52.464;16.922;2023-06-24T00:08:51;9.00;;;5.32;;
77109;SDS011;66062;52.464;16.922;2023-06-24T00:11:17;8.60;;;5.63;;
77109;SDS011;66062;52.464;16.922;2023-06-24T00:13:43;6.90;;;5.13;;
77109;SDS011;66062;52.464;16.922;2023-06-24T00:16:10;6.82;;;5.22;;
77109;SDS011;66062;52.464;16.922;2023-06-24T00:18:36;8.55;;;5.47;;
77109;SDS011;66062;52.464;16.922;2023-06-24T00:21:03;12.55;;;5.85;;
77109;SDS011;66062;52.464;16.922;2023-06-24T00:23:29;6.97;;;4.75;;
77109;SDS011;66062;52.464;16.922;2023-06-24T00:26:00;8.80;;;5.32;;
77109;SDS011;66062;52.464;16.922;2023-06-24T00:28:26;9.98;;;5.57;;
77109;SDS011;66062;52.464;16.922;2023-06-24T00:30:52;8.80;;;4.75;;
77109;SDS011;66062;52.464;16.922;2023-06-24T00:33:18;8.85;;;5.97;;
77109;SDS011;66062;52.464;16.922;2023-06-24T00:35:47;10.13;;;5.43;;
77109;SDS011;66062;52.464;16.922;2023-06-24T00:38:13;10.15;;;5.90;;
77109;SDS011;66062;52.464;16.922;2023-06-24T00:40:38;9.77;;;5.97;;
77109;SDS011;66062;52.464;16.922;2023-06-24T00:43:04;7.53;;;5.65;;
77109;SDS011;66062;52.464;16.922;2023-06-24T00:50:23;9.10;;;5.30;;
77109;SDS011;66062;52.464;16.922;2023-06-24T00:52:51;7.28;;;4.88;;
77109;SDS011;66062;52.464;16.922;2023-06-24T00:55:17;7.57;;;5.47;;
77109;SDS011;66062;52.464;16.922;2023-06-24T00:57:45;8.48;;;5.40;;
77109;SDS011;66062;52.464;16.922;2023-06-24T01:00:19;8.95;;;4.78;;
77109;SDS011;66062;52.464;16.922;2023-06-24T01:02:47;11.80;;;5.15;;
77109;SDS011;66062;52.464;16.922;2023-06-24T01:05:13;9.18;;;5.72;;
77109;SDS011;66062;52.464;16.922;2023-06-24T01:07:40;11.30;;;7.72;;
77109;SDS011;66062;52.464;16.922;2023-06-24T01:10:07;8.98;;;5.18;;
77109;SDS011;66062;52.464;16.922;2023-06-24T01:12:34;9.60;;;4.47;;
77109;SDS011;66062;52.464;16.922;2023-06-24T01:15:02;6.95;;;4.97;;
77109;SDS011;66062;52.464;16.922;2023-06-24T01:17:35;8.40;;;4.50;;
77109;SDS011;66062;52.464;16.922;2023-06-24T01:26:07;6.50;;;4.65;;
77109;SDS011;66062;52.464;16.922;2023-06-24T01:28:52;7.65;;;4.53;;
77109;SDS011;66062;52.464;16.922;2023-06-24T01:31:31;6.55;;;3.83;;
77109;SDS011;66062;52.464;16.922;2023-06-24T01:34:12;8.68;;;4.80;;
77109;SDS011;66062;52.464;16.922;2023-06-24T01:37:10;6.38;;;4.35;;
77109;SDS011;66062;52.464;16.922;2023-06-24T01:39:52;7.63;;;4.57;;
77109;SDS011;66062;52.464;16.922;2023-06-24T01:42:30;8.95;;;4.78;;
77109;SDS011;66062;52.464;16.922;2023-06-24T01:44:57;9.75;;;4.80;;
77109;SDS011;66062;52.464;16.922;2023-06-24T01:47:30;7.53;;;4.47;;
77109;SDS011;66062;52.464;16.922;2023-06-24T01:49:59;6.18;;;4.00;;
77109;SDS011;66062;52.464;16.922;2023-06-24T01:52:28;7.28;;;4.43;;
77109;SDS011;66062;52.464;16.922;2023-06-24T01:54:55;7.30;;;4.78;;
77109;SDS011;66062;52.464;16.922;2023-06-24T01:57:24;9.63;;;4.72;;
77109;SDS011;66062;52.464;16.922;2023-06-24T01:59:52;4.43;;;3.00;;
77109;SDS011;66062;52.464;16.922;2023-06-24T02:02:20;7.07;;;3.30;;
77109;SDS011;66062;52.464;16.922;2023-06-24T02:04:46;6.35;;;4.30;;
77109;SDS011;66062;52.464;16.922;2023-06-24T02:07:14;6.72;;;4.00;;
77109;SDS011;66062;52.464;16.922;2023-06-24T02:09:42;7.85;;;4.53;;
77109;SDS011;66062;52.464;16.922;2023-06-24T02:17:01;8.98;;;4.30;;
77109;SDS011;66062;52.464;16.922;2023-06-24T02:19:30;8.32;;;4.47;;
77109;SDS011;66062;52.464;16.922;2023-06-24T02:21:56;7.20;;;4.43;;
77109;SDS011;66062;52.464;16.922;2023-06-24T02:24:24;6.82;;;4.47;;
77109;SDS011;66062;52.464;16.922;2023-06-24T02:26:51;10.10;;;4.70;;
77109;SDS011;66062;52.464;16.922;2023-06-24T02:29:18;10.73;;;4.85;;
77109;SDS011;66062;52.464;16.922;2023-06-24T02:31:46;6.85;;;4.38;;
77109;SDS011;66062;52.464;16.922;2023-06-24T02:34:12;7.07;;;4.80;;
77109;SDS011;66062;52.464;16.922;2023-06-24T02:36:37;7.13;;;4.85;;
77109;SDS011;66062;52.464;16.922;2023-06-24T02:39:03;11.57;;;4.80;;
77109;SDS011;66062;52.464;16.922;2023-06-24T02:41:29;7.40;;;4.95;;
77109;SDS011;66062;52.464;16.922;2023-06-24T02:43:54;8.02;;;4.75;;
77109;SDS011;66062;52.464;16.922;2023-06-24T02:46:20;10.95;;;5.10;;
77109;SDS011;66062;52.464;16.922;2023-06-24T02:51:13;7.22;;;5.18;;
77109;SDS011;66062;52.464;16.922;2023-06-24T02:53:39;8.43;;;5.32;;
77109;SDS011;66062;52.464;16.922;2023-06-24T02:56:05;11.07;;;5.90;;
77109;SDS011;66062;52.464;16.922;2023-06-24T02:58:33;8.88;;;5.60;;
77109;SDS011;66062;52.464;16.922;2023-06-24T03:01:00;9.13;;;5.93;;
77109;SDS011;66062;52.464;16.922;2023-06-24T03:03:27;9.90;;;5.15;;
77109;SDS011;66062;52.464;16.922;2023-06-24T03:05:54;10.80;;;5.75;;
77109;SDS011;66062;52.464;16.922;2023-06-24T03:08:22;11.43;;;6.38;;
77109;SDS011;66062;52.464;16.922;2023-06-24T03:10:49;9.63;;;6.03;;
77109;SDS011;66062;52.464;16.922;2023-06-24T03:13:21;7.88;;;5.40;;
77109;SDS011;66062;52.464;16.922;2023-06-24T03:15:46;9.98;;;6.35;;
77109;SDS011;66062;52.464;16.922;2023-06-24T03:18:12;9.90;;;6.03;;
77109;SDS011;66062;52.464;16.922;2023-06-24T03:20:37;9.73;;;6.30;;
77109;SDS011;66062;52.464;16.922;2023-06-24T03:23:06;9.75;;;5.65;;
77109;SDS011;66062;52.464;16.922;2023-06-24T03:25:32;10.65;;;5.85;;
77109;SDS011;66062;52.464;16.922;2023-06-24T03:27:57;8.60;;;5.97;;
77109;SDS011;66062;52.464;16.922;2023-06-24T03:30:25;14.50;;;5.95;;
77109;SDS011;66062;52.464;16.922;2023-06-24T03:32:51;11.73;;;5.63;;
77109;SDS011;66062;52.464;16.922;2023-06-24T03:35:23;7.75;;;5.38;;
77109;SDS011;66062;52.464;16.922;2023-06-24T03:37:49;11.25;;;6.72;;
77109;SDS011;66062;52.464;16.922;2023-06-24T03:40:14;11.65;;;5.10;;
77109;SDS011;66062;52.464;16.922;2023-06-24T03:42:40;9.65;;;5.63;;
77109;SDS011;66062;52.464;16.922;2023-06-24T03:45:05;9.60;;;6.22;;
77109;SDS011;66062;52.464;16.922;2023-06-24T03:47:31;12.13;;;6.25;;
77109;SDS011;66062;52.464;16.922;2023-06-24T03:49:56;9.48;;;5.70;;
77109;SDS011;66062;52.464;16.922;2023-06-24T03:52:22;10.68;;;6.78;;
77109;SDS011;66062;52.464;16.922;2023-06-24T03:54:47;10.27;;;6.70;;
77109;SDS011;66062;52.464;16.922;2023-06-24T03:57:13;10.43;;;6.55;;
77109;SDS011;66062;52.464;16.922;2023-06-24T03:59:38;12.00;;;6.28;;
77109;SDS011;66062;52.464;16.922;2023-06-24T04:02:04;10.00;;;6.70;;
77109;SDS011;66062;52.464;16.922;2023-06-24T04:04:33;7.80;;;5.72;;
77109;SDS011;66062;52.464;16.922;2023-06-24T04:06:59;15.10;;;6.82;;
77109;SDS011;66062;52.464;16.922;2023-06-24T04:09:25;8.85;;;6.75;;
77109;SDS011;66062;52.464;16.922;2023-06-24T04:11:50;10.10;;;5.82;;
77109;SDS011;66062;52.464;16.922;2023-06-24T04:14:16;10.90;;;5.93;;
77109;SDS011;66062;52.464;16.922;2023-06-24T04:16:41;10.25;;;5.57;;
77109;SDS011;66062;52.464;16.922;2023-06-24T04:19:06;8.40;;;6.45;;
77109;SDS011;66062;52.464;16.922;2023-06-24T04:21:32;13.93;;;6.03;;
77109;SDS011;66062;52.464;16.922;2023-06-24T04:23:57;11.30;;;6.20;;
77109;SDS011;66062;52.464;16.922;2023-06-24T04:26:23;11.13;;;6.75;;
77109;SDS011;66062;52.464;16.922;2023-06-24T04:28:48;10.02;;;6.40;;
77109;SDS011;66062;52.464;16.922;2023-06-24T04:31:13;10.07;;;6.43;;
77109;SDS011;66062;52.464;16.922;2023-06-24T04:33:39;12.85;;;6.05;;
77109;SDS011;66062;52.464;16.922;2023-06-24T04:36:04;7.68;;;5.93;;
77109;SDS011;66062;52.464;16.922;2023-06-24T04:38:30;8.07;;;5.80;;
77109;SDS011;66062;52.464;16.922;2023-06-24T04:40:55;8.93;;;6.07;;
77109;SDS011;66062;52.464;16.922;2023-06-24T04:43:24;9.40;;;6.25;;
77109;SDS011;66062;52.464;16.922;2023-06-24T04:45:50;10.10;;;5.93;;
77109;SDS011;66062;52.464;16.922;2023-06-24T04:48:15;7.53;;;6.20;;
77109;SDS011;66062;52.464;16.922;2023-06-24T04:50:41;9.70;;;6.22;;
77109;SDS011;66062;52.464;16.922;2023-06-24T04:53:06;11.48;;;6.53;;
77109;SDS011;66062;52.464;16.922;2023-06-24T04:55:31;11.63;;;5.97;;
77109;SDS011;66062;52.464;16.922;2023-06-24T04:57:57;9.23;;;6.40;;
77109;SDS011;66062;52.464;16.922;2023-06-24T05:00:22;10.82;;;7.10;;
77109;SDS011;66062;52.464;16.922;2023-06-24T05:02:49;9.35;;;6.03;;
77109;SDS011;66062;52.464;16.922;2023-06-24T05:05:14;8.27;;;5.55;;
77109;SDS011;66062;52.464;16.922;2023-06-24T05:07:40;10.13;;;6.03;;
77109;SDS011;66062;52.464;16.922;2023-06-24T05:10:05;10.05;;;6.55;;
77109;SDS011;66062;52.464;16.922;2023-06-24T05:12:31;9.93;;;5.78;;
77109;SDS011;66062;52.464;16.922;2023-06-24T05:14:56;9.95;;;6.47;;
77109;SDS011;66062;52.464;16.922;2023-06-24T05:17:21;9.48;;;6.05;;
77109;SDS011;66062;52.464;16.922;2023-06-24T05:19:47;9.55;;;5.97;;
77109;SDS011;66062;52.464;16.922;2023-06-24T05:22:12;9.63;;;6.13;;
77109;SDS011;66062;52.464;16.922;2023-06-24T05:24:38;9.52;;;5.32;;
77109;SDS011;66062;52.464;16.922;2023-06-24T05:27:04;9.88;;;5.55;;
77109;SDS011;66062;52.464;16.922;2023-06-24T05:29:31;11.43;;;7.30;;
77109;SDS011;66062;52.464;16.922;2023-06-24T05:31:57;16.75;;;4.95;;
77109;SDS011;66062;52.464;16.922;2023-06-24T05:34:24;9.27;;;6.00;;
77109;SDS011;66062;52.464;16.922;2023-06-24T05:36:49;11.98;;;5.70;;
77109;SDS011;66062;52.464;16.922;2023-06-24T05:39:14;8.75;;;5.38;;
77109;SDS011;66062;52.464;16.922;2023-06-24T05:41:40;8.15;;;5.68;;
77109;SDS011;66062;52.464;16.922;2023-06-24T05:44:08;9.93;;;7.00;;
77109;SDS011;66062;52.464;16.922;2023-06-24T05:46:37;6.50;;;4.65;;
77109;SDS011;66062;52.464;16.922;2023-06-24T05:49:02;6.07;;;4.95;;
77109;SDS011;66062;52.464;16.922;2023-06-24T05:51:28;6.55;;;4.82;;
77109;SDS011;66062;52.464;16.922;2023-06-24T05:53:53;8.30;;;5.43;;
77109;SDS011;66062;52.464;16.922;2023-06-24T05:56:22;7.18;;;5.13;;
77109;SDS011;66062;52.464;16.922;2023-06-24T05:58:48;9.40;;;5.22;;
77109;SDS011;66062;52.464;16.922;2023-06-24T06:01:14;10.05;;;4.55;;
77109;SDS011;66062;52.464;16.922;2023-06-24T06:03:39;7.45;;;5.10;;
77109;SDS011;66062;52.464;16.922;2023-06-24T06:06:05;8.05;;;4.93;;
77109;SDS011;66062;52.464;16.922;2023-06-24T06:08:31;8.15;;;4.70;;
77109;SDS011;66062;52.464;16.922;2023-06-24T06:10:57;5.82;;;4.70;;
77109;SDS011;66062;52.464;16.922;2023-06-24T06:13:22;14.07;;;5.38;;
77109;SDS011;66062;52.464;16.922;2023-06-24T06:15:48;8.73;;;6.15;;
77109;SDS011;66062;52.464;16.922;2023-06-24T06:18:13;6.75;;;5.05;;
77109;SDS011;66062;52.464;16.922;2023-06-24T06:20:39;9.20;;;5.05;;
77109;SDS011;66062;52.464;16.922;2023-06-24T06:23:05;10.23;;;5.22;;
77109;SDS011;66062;52.464;16.922;2023-06-24T06:25:30;11.38;;;6.55;;
77109;SDS011;66062;52.464;16.922;2023-06-24T06:27:55;9.20;;;5.90;;
77109;SDS011;66062;52.464;16.922;2023-06-24T06:30:21;7.95;;;5.05;;
77109;SDS011;66062;52.464;16.922;2023-06-24T06:32:46;6.20;;;4.18;;
77109;SDS011;66062;52.464;16.922;2023-06-24T06:35:12;9.13;;;4.80;;
77109;SDS011;66062;52.464;16.922;2023-06-24T06:37:37;9.88;;;5.28;;
77109;SDS011;66062;52.464;16.922;2023-06-24T06:40:03;8.55;;;4.97;;
77109;SDS011;66062;52.464;16.922;2023-06-24T06:42:29;9.57;;;4.97;;
77109;SDS011;66062;52.464;16.922;2023-06-24T06:44:55;7.88;;;4.85;;
77109;SDS011;66062;52.464;16.922;2023-06-24T06:47:20;7.50;;;5.10;;
77109;SDS011;66062;52.464;16.922;2023-06-24T06:49:45;6.70;;;4.65;;
77109;SDS011;66062;52.464;16.922;2023-06-24T06:52:11;8.63;;;6.05;;
77109;SDS011;66062;52.464;16.922;2023-06-24T06:54:36;11.50;;;6.75;;
77109;SDS011;66062;52.464;16.922;2023-06-24T06:57:04;8.20;;;5.47;;
77109;SDS011;66062;52.464;16.922;2023-06-24T06:59:30;7.38;;;4.90;;
77109;SDS011;66062;52.464;16.922;2023-06-24T07:01:56;10.27;;;5.65;;
77109;SDS011;66062;52.464;16.922;2023-06-24T07:04:22;24.63;;;16.58;;
77109;SDS011;66062;52.464;16.922;2023-06-24T07:06:47;10.88;;;6.40;;
77109;SDS011;66062;52.464;16.922;2023-06-24T07:09:13;7.80;;;4.45;;
77109;SDS011;66062;52.464;16.922;2023-06-24T07:14:05;7.50;;;4.65;;
77109;SDS011;66062;52.464;16.922;2023-06-24T07:16:31;9.20;;;4.90;;
77109;SDS011;66062;52.464;16.922;2023-06-24T07:18:56;7.18;;;4.53;;
77109;SDS011;66062;52.464;16.922;2023-06-24T07:21:22;8.18;;;3.90;;
77109;SDS011;66062;52.464;16.922;2023-06-24T07:23:47;8.30;;;4.78;;
77109;SDS011;66062;52.464;16.922;2023-06-24T07:26:13;8.23;;;4.22;;
77109;SDS011;66062;52.464;16.922;2023-06-24T07:28:41;7.32;;;4.60;;
77109;SDS011;66062;52.464;16.922;2023-06-24T07:31:07;5.55;;;4.00;;
77109;SDS011;66062;52.464;16.922;2023-06-24T07:33:32;10.13;;;7.20;;
77109;SDS011;66062;52.464;16.922;2023-06-24T07:36:00;13.90;;;6.22;;
77109;SDS011;66062;52.464;16.922;2023-06-24T07:38:27;10.35;;;5.95;;
77109;SDS011;66062;52.464;16.922;2023-06-24T07:40:53;8.32;;;4.13;;
77109;SDS011;66062;52.464;16.922;2023-06-24T07:43:19;11.73;;;8.85;;
77109;SDS011;66062;52.464;16.922;2023-06-24T07:45:44;5.53;;;4.30;;
77109;SDS011;66062;52.464;16.922;2023-06-24T07:48:10;7.05;;;4.30;;
77109;SDS011;66062;52.464;16.922;2023-06-24T07:50:35;5.88;;;4.35;;
77109;SDS011;66062;52.464;16.922;2023-06-24T07:53:01;7.53;;;4.15;;
77109;SDS011;66062;52.464;16.922;2023-06-24T07:55:27;5.57;;;4.13;;
77109;SDS011;66062;52.464;16.922;2023-06-24T07:57:53;6.10;;;3.65;;
77109;SDS011;66062;52.464;16.922;2023-06-24T08:00:18;5.10;;;3.65;;
77109;SDS011;66062;52.464;16.922;2023-06-24T08:02:44;7.70;;;4.30;;
77109;SDS011;66062;52.464;16.922;2023-06-24T08:05:09;7.97;;;4.00;;
77109;SDS011;66062;52.464;16.922;2023-06-24T08:07:35;7.53;;;4.28;;
77109;SDS011;66062;52.464;16.922;2023-06-24T08:10:01;4.53;;;3.38;;
77109;SDS011;66062;52.464;16.922;2023-06-24T08:12:27;5.60;;;3.63;;
77109;SDS011;66062;52.464;16.922;2023-06-24T08:14:52;6.22;;;4.28;;
77109;SDS011;66062;52.464;16.922;2023-06-24T08:17:17;8.05;;;5.97;;
77109;SDS011;66062;52.464;16.922;2023-06-24T08:19:43;6.22;;;3.72;;
77109;SDS011;66062;52.464;16.922;2023-06-24T08:22:08;6.22;;;4.55;;
77109;SDS011;66062;52.464;16.922;2023-06-24T08:24:34;6.00;;;3.72;;
77109;SDS011;66062;52.464;16.922;2023-06-24T08:26:59;6.40;;;4.43;;
77109;SDS011;66062;52.464;16.922;2023-06-24T08:29:25;4.80;;;3.90;;
77109;SDS011;66062;52.464;16.922;2023-06-24T08:31:50;7.78;;;4.55;;
77109;SDS011;66062;52.464;16.922;2023-06-24T08:34:15;6.50;;;3.55;;
77109;SDS011;66062;52.464;16.922;2023-06-24T08:36:41;6.15;;;3.72;;
77109;SDS011;66062;52.464;16.922;2023-06-24T08:39:07;7.30;;;3.10;;
77109;SDS011;66062;52.464;16.922;2023-06-24T08:41:33;6.80;;;3.38;;
77109;SDS011;66062;52.464;16.922;2023-06-24T08:43:58;10.35;;;3.80;;
77109;SDS011;66062;52.464;16.922;2023-06-24T08:46:24;7.28;;;3.70;;
77109;SDS011;66062;52.464;16.922;2023-06-24T08:48:54;12.77;;;8.15;;
77109;SDS011;66062;52.464;16.922;2023-06-24T08:51:55;13.88;;;9.20;;
77109;SDS011;66062;52.464;16.922;2023-06-24T08:54:25;5.07;;;3.50;;
77109;SDS011;66062;52.464;16.922;2023-06-24T08:56:52;8.50;;;3.20;;
77109;SDS011;66062;52.464;16.922;2023-06-24T08:59:18;6.78;;;3.90;;
77109;SDS011;66062;52.464;16.922;2023-06-24T09:01:47;5.93;;;3.25;;
77109;SDS011;66062;52.464;16.922;2023-06-24T09:04:15;7.10;;;3.55;;
77109;SDS011;66062;52.464;16.922;2023-06-24T09:06:40;4.60;;;3.70;;
77109;SDS011;66062;52.464;16.922;2023-06-24T09:09:16;5.45;;;3.22;;
77109;SDS011;66062;52.464;16.922;2023-06-24T09:11:45;10.35;;;3.53;;
77109;SDS011;66062;52.464;16.922;2023-06-24T09:14:17;6.40;;;3.55;;
77109;SDS011;66062;52.464;16.922;2023-06-24T09:16:42;7.85;;;5.15;;
77109;SDS011;66062;52.464;16.922;2023-06-24T09:19:20;11.35;;;4.07;;
77109;SDS011;66062;52.464;16.922;2023-06-24T09:21:46;6.55;;;4.80;;
77109;SDS011;66062;52.464;16.922;2023-06-24T09:24:12;7.05;;;2.95;;
77109;SDS011;66062;52.464;16.922;2023-06-24T09:26:37;4.90;;;3.15;;
77109;SDS011;66062;52.464;16.922;2023-06-24T09:29:06;5.93;;;3.05;;
77109;SDS011;66062;52.464;16.922;2023-06-24T09:31:33;6.38;;;3.22;;
77109;SDS011;66062;52.464;16.922;2023-06-24T09:33:58;9.52;;;5.45;;
77109;SDS011;66062;52.464;16.922;2023-06-24T09:36:24;6.13;;;3.28;;
77109;SDS011;66062;52.464;16.922;2023-06-24T09:38:50;9.25;;;5.93;;
77109;SDS011;66062;52.464;16.922;2023-06-24T09:41:15;4.80;;;2.95;;
77109;SDS011;66062;52.464;16.922;2023-06-24T09:43:41;8.32;;;5.05;;
77109;SDS011;66062;52.464;16.922;2023-06-24T09:46:09;5.80;;;3.88;;
77109;SDS011;66062;52.464;16.922;2023-06-24T09:48:34;6.82;;;3.45;;
77109;SDS011;66062;52.464;16.922;2023-06-24T09:51:00;5.70;;;3.15;;
77109;SDS011;66062;52.464;16.922;2023-06-24T09:53:33;5.45;;;3.13;;
77109;SDS011;66062;52.464;16.922;2023-06-24T09:56:00;4.80;;;2.97;;
77109;SDS011;66062;52.464;16.922;2023-06-24T09:58:28;5.70;;;2.80;;
77109;SDS011;66062;52.464;16.922;2023-06-24T10:00:57;5.22;;;2.88;;
77109;SDS011;66062;52.464;16.922;2023-06-24T10:03:26;5.45;;;2.97;;
77109;SDS011;66062;52.464;16.922;2023-06-24T10:05:52;5.88;;;2.75;;
77109;SDS011;66062;52.464;16.922;2023-06-24T10:08:18;4.60;;;2.58;;
77109;SDS011;66062;52.464;16.922;2023-06-24T10:10:44;6.30;;;2.78;;
77109;SDS011;66062;52.464;16.922;2023-06-24T10:13:09;6.13;;;2.80;;
77109;SDS011;66062;52.464;16.922;2023-06-24T10:15:35;3.65;;;2.90;;
77109;SDS011;66062;52.464;16.922;2023-06-24T10:18:01;4.43;;;3.10;;
77109;SDS011;66062;52.464;16.922;2023-06-24T10:20:28;4.18;;;2.97;;
77109;SDS011;66062;52.464;16.922;2023-06-24T10:22:53;4.50;;;2.38;;
77109;SDS011;66062;52.464;16.922;2023-06-24T10:25:19;4.45;;;2.55;;
77109;SDS011;66062;52.464;16.922;2023-06-24T10:27:46;6.88;;;2.67;;
77109;SDS011;66062;52.464;16.922;2023-06-24T10:30:19;3.28;;;2.75;;
77109;SDS011;66062;52.464;16.922;2023-06-24T10:32:45;5.78;;;3.45;;
77109;SDS011;66062;52.464;16.922;2023-06-24T10:35:22;4.72;;;2.53;;
77109;SDS011;66062;52.464;16.922;2023-06-24T10:37:58;4.75;;;3.20;;
77109;SDS011;66062;52.464;16.922;2023-06-24T10:40:42;4.25;;;2.33;;
77109;SDS011;66062;52.464;16.922;2023-06-24T10:45:50;5.60;;;3.05;;
77109;SDS011;66062;52.464;16.922;2023-06-24T10:48:19;6.07;;;3.33;;
77109;SDS011;66062;52.464;16.922;2023-06-24T10:50:48;5.68;;;3.42;;
77109;SDS011;66062;52.464;16.922;2023-06-24T10:53:17;6.20;;;3.55;;
77109;SDS011;66062;52.464;16.922;2023-06-24T10:55:45;6.35;;;3.42;;
77109;SDS011;66062;52.464;16.922;2023-06-24T10:58:12;3.85;;;2.72;;
77109;SDS011;66062;52.464;16.922;2023-06-24T11:00:39;4.68;;;2.03;;
77109;SDS011;66062;52.464;16.922;2023-06-24T11:03:11;4.05;;;2.50;;
77109;SDS011;66062;52.464;16.922;2023-06-24T11:05:41;3.50;;;2.30;;
77109;SDS011;66062;52.464;16.922;2023-06-24T11:08:09;3.90;;;2.72;;
77109;SDS011;66062;52.464;16.922;2023-06-24T11:10:47;7.03;;;2.88;;
77109;SDS011;66062;52.464;16.922;2023-06-24T11:13:13;3.88;;;2.60;;
77109;SDS011;66062;52.464;16.922;2023-06-24T11:15:39;7.95;;;2.95;;
77109;SDS011;66062;52.464;16.922;2023-06-24T11:18:08;3.00;;;2.42;;
77109;SDS011;66062;52.464;16.922;2023-06-24T11:20:38;3.55;;;2.95;;
77109;SDS011;66062;52.464;16.922;2023-06-24T11:23:10;6.07;;;3.10;;
77109;SDS011;66062;52.464;16.922;2023-06-24T11:25:39;5.13;;;3.10;;
77109;SDS011;66062;52.464;16.922;2023-06-24T11:28:11;5.35;;;2.90;;
77109;SDS011;66062;52.464;16.922;2023-06-24T11:30:38;5.13;;;3.17;;
77109;SDS011;66062;52.464;16.922;2023-06-24T11:33:03;5.20;;;3.22;;
77109;SDS011;66062;52.464;16.922;2023-06-24T11:35:29;5.13;;;3.00;;
77109;SDS011;66062;52.464;16.922;2023-06-24T11:37:57;6.50;;;3.90;;
77109;SDS011;66062;52.464;16.922;2023-06-24T11:40:26;6.47;;;3.25;;
77109;SDS011;66062;52.464;16.922;2023-06-24T11:42:52;4.55;;;2.83;;
77109;SDS011;66062;52.464;16.922;2023-06-24T11:45:27;4.45;;;3.03;;
77109;SDS011;66062;52.464;16.922;2023-06-24T11:47:52;5.22;;;3.03;;
77109;SDS011;66062;52.464;16.922;2023-06-24T11:50:18;5.22;;;3.80;;
77109;SDS011;66062;52.464;16.922;2023-06-24T11:52:51;6.15;;;2.67;;
77109;SDS011;66062;52.464;16.922;2023-06-24T11:57:59;6.20;;;2.88;;
77109;SDS011;66062;52.464;16.922;2023-06-24T12:00:31;6.82;;;3.50;;
77109;SDS011;66062;52.464;16.922;2023-06-24T12:03:08;6.82;;;3.05;;
77109;SDS011;66062;52.464;16.922;2023-06-24T12:05:38;4.30;;;3.13;;
77109;SDS011;66062;52.464;16.922;2023-06-24T12:08:10;6.55;;;3.75;;
77109;SDS011;66062;52.464;16.922;2023-06-24T12:10:37;6.30;;;3.03;;
77109;SDS011;66062;52.464;16.922;2023-06-24T12:13:03;5.05;;;2.22;;
77109;SDS011;66062;52.464;16.922;2023-06-24T12:15:31;5.25;;;3.17;;
77109;SDS011;66062;52.464;16.922;2023-06-24T12:17:57;5.20;;;3.15;;
77109;SDS011;66062;52.464;16.922;2023-06-24T12:20:24;5.93;;;3.10;;
77109;SDS011;66062;52.464;16.922;2023-06-24T12:22:50;4.82;;;3.33;;
77109;SDS011;66062;52.464;16.922;2023-06-24T12:25:17;4.93;;;3.20;;
77109;SDS011;66062;52.464;16.922;2023-06-24T12:27:43;5.32;;;2.97;;
77109;SDS011;66062;52.464;16.922;2023-06-24T12:30:09;4.53;;;3.10;;
77109;SDS011;66062;52.464;16.922;2023-06-24T12:32:35;3.90;;;2.97;;
77109;SDS011;66062;52.464;16.922;2023-06-24T12:35:02;5.22;;;3.10;;
77109;SDS011;66062;52.464;16.922;2023-06-24T12:37:31;4.85;;;3.17;;
77109;SDS011;66062;52.464;16.922;2023-06-24T12:39:58;5.68;;;4.15;;
77109;SDS011;66062;52.464;16.922;2023-06-24T12:42:24;6.32;;;3.30;;
77109;SDS011;66062;52.464;16.922;2023-06-24T12:44:50;6.10;;;3.00;;
77109;SDS011;66062;52.464;16.922;2023-06-24T12:47:15;8.27;;;3.20;;
77109;SDS011;66062;52.464;16.922;2023-06-24T12:49:41;3.40;;;2.80;;
77109;SDS011;66062;52.464;16.922;2023-06-24T12:52:06;5.93;;;2.97;;
77109;SDS011;66062;52.464;16.922;2023-06-24T12:54:32;3.95;;;3.08;;
77109;SDS011;66062;52.464;16.922;2023-06-24T12:56:57;8.23;;;5.93;;
77109;SDS011;66062;52.464;16.922;2023-06-24T12:59:23;6.63;;;3.20;;
77109;SDS011;66062;52.464;16.922;2023-06-24T13:01:48;6.25;;;3.38;;
77109;SDS011;66062;52.464;16.922;2023-06-24T13:04:13;5.35;;;3.28;;
77109;SDS011;66062;52.464;16.922;2023-06-24T13:06:39;4.80;;;2.72;;
77109;SDS011;66062;52.464;16.922;2023-06-24T13:09:05;7.35;;;3.08;;
77109;SDS011;66062;52.464;16.922;2023-06-24T13:11:30;5.70;;;3.53;;
77109;SDS011;66062;52.464;16.922;2023-06-24T13:13:56;4.85;;;3.40;;
77109;SDS011;66062;52.464;16.922;2023-06-24T13:16:21;5.57;;;3.63;;
77109;SDS011;66062;52.464;16.922;2023-06-24T13:18:47;8.05;;;3.42;;
77109;SDS011;66062;52.464;16.922;2023-06-24T13:21:12;6.38;;;3.45;;
77109;SDS011;66062;52.464;16.922;2023-06-24T13:23:38;6.55;;;3.33;;
77109;SDS011;66062;52.464;16.922;2023-06-24T13:26:05;4.55;;;2.95;;
77109;SDS011;66062;52.464;16.922;2023-06-24T13:30:57;5.80;;;3.72;;
77109;SDS011;66062;52.464;16.922;2023-06-24T13:33:22;5.85;;;3.58;;
77109;SDS011;66062;52.464;16.922;2023-06-24T13:35:48;5.30;;;3.65;;
77109;SDS011;66062;52.464;16.922;2023-06-24T13:38:14;9.63;;;2.97;;
77109;SDS011;66062;52.464;16.922;2023-06-24T13:40:40;10.48;;;7.07;;
77109;SDS011;66062;52.464;16.922;2023-06-24T13:43:05;16.05;;;10.77;;
77109;SDS011;66062;52.464;16.922;2023-06-24T13:45:32;5.82;;;3.75;;
77109;SDS011;66062;52.464;16.922;2023-06-24T13:47:57;5.25;;;3.13;;
77109;SDS011;66062;52.464;16.922;2023-06-24T13:50:23;4.68;;;3.50;;
77109;SDS011;66062;52.464;16.922;2023-06-24T13:52:48;6.60;;;3.65;;
77109;SDS011;66062;52.464;16.922;2023-06-24T13:55:14;6.53;;;4.25;;
77109;SDS011;66062;52.464;16.922;2023-06-24T13:57:39;5.93;;;4.22;;
77109;SDS011;66062;52.464;16.922;2023-06-24T14:00:05;6.82;;;3.85;;
77109;SDS011;66062;52.464;16.922;2023-06-24T14:04:56;5.23;;;3.50;;
77109;SDS011;66062;52.464;16.922;2023-06-24T14:07:22;7.97;;;3.53;;
77109;SDS011;66062;52.464;16.922;2023-06-24T14:09:49;6.90;;;4.18;;
77109;SDS011;66062;52.464;16.922;2023-06-24T14:12:15;7.35;;;3.78;;
77109;SDS011;66062;52.464;16.922;2023-06-24T14:14:40;5.28;;;3.53;;
77109;SDS011;66062;52.464;16.922;2023-06-24T14:17:06;4.88;;;3.65;;
77109;SDS011;66062;52.464;16.922;2023-06-24T14:19:36;6.22;;;4.00;;
77109;SDS011;66062;52.464;16.922;2023-06-24T14:22:03;6.63;;;3.28;;
77109;SDS011;66062;52.464;16.922;2023-06-24T14:24:28;7.50;;;4.13;;
77109;SDS011;66062;52.464;16.922;2023-06-24T14:26:54;6.53;;;4.40;;
77109;SDS011;66062;52.464;16.922;2023-06-24T14:29:20;6.53;;;4.22;;
77109;SDS011;66062;52.464;16.922;2023-06-24T14:31:46;6.18;;;3.92;;
77109;SDS011;66062;52.464;16.922;2023-06-24T14:34:11;5.70;;;3.97;;
77109;SDS011;66062;52.464;16.922;2023-06-24T14:36:37;6.90;;;3.38;;
77109;SDS011;66062;52.464;16.922;2023-06-24T14:39:02;9.82;;;4.53;;
77109;SDS011;66062;52.464;16.922;2023-06-24T14:41:28;5.93;;;4.45;;
77109;SDS011;66062;52.464;16.922;2023-06-24T14:43:53;7.30;;;4.72;;
77109;SDS011;66062;52.464;16.922;2023-06-24T14:46:19;11.48;;;6.35;;
77109;SDS011;66062;52.464;16.922;2023-06-24T14:48:44;14.90;;;6.53;;
77109;SDS011;66062;52.464;16.922;2023-06-24T14:51:10;6.25;;;4.07;;
77109;SDS011;66062;52.464;16.922;2023-06-24T14:53:35;5.63;;;4.18;;
77109;SDS011;66062;52.464;16.922;2023-06-24T14:56:00;6.25;;;3.85;;
77109;SDS011;66062;52.464;16.922;2023-06-24T14:58:26;6.63;;;4.55;;
77109;SDS011;66062;52.464;16.922;2023-06-24T15:00:51;5.55;;;4.32;;